Terminal Aerodrome Forecast
Issued by NWS Charleston, WV

Current Version | Previous Version | Graphics & Text | Print | Product List | Glossary On
Versions: 1 2 3 4 5 6 7 8 9 10 11 12 13 14 15 16 17 18 19 20 21 22 23 24
000
FTUS41 KRLX 251000 AAC
TAFHTS
TAF AMD
KHTS 251031Z 2511/2606 00000KT 4SM BR SCT001
      TEMPO 2511/2512 1SM BR BKN001
     FM251200 VRB03KT 4SM BR SCT002
      TEMPO 2512/2513 BKN002
     FM251300 VRB03KT 6SM BR SCT005
     FM251400 VRB03KT P6SM SKC
     FM251700 VRB03KT P6SM SCT045
     FM252200 19005KT P6SM SCT050=

USA.gov is the U.S. government's official web portal to all federal, state and local government web resources and services.